Time;durP1;ratioP1;P1;durP2;ratioP2;P2;SDS_P1;SDS_P2;PMS_P1;PMS_P2;Temp;Humidity;BMP_temperature;BMP_pressure;BME280_temperature;BME280_humidity;BME280_pressure;Samples;Min_cycle;Max_cycle;Signal;HPM_P1;HPM_P2
2022/12/10 04:02:35;;;;;;;2.33;1.80;;;14.00;50.20;;;;;;4948789;28;45158;-61
2022/12/10 04:05:00;;;;;;;3.50;2.45;;;14.00;50.20;;;;;;4969396;28;44995;-62
2022/12/10 04:07:26;;;;;;;2.33;1.90;;;14.00;50.10;;;;;;4965605;28;45025;-63
2022/12/10 04:09:51;;;;;;;2.83;1.95;;;14.00;50.20;;;;;;4964977;28;45337;-62
2022/12/10 04:12:17;;;;;;;3.10;2.45;;;14.00;50.20;;;;;;4967491;28;46416;-63
2022/12/10 04:17:34;;;;;;;2.30;2.10;;;14.00;50.20;;;;;;4935603;28;45754;-62
2022/12/10 04:20:00;;;;;;;2.80;1.90;;;14.00;50.20;;;;;;4968176;28;45216;-64
2022/12/10 04:27:55;;;;;;;3.10;2.03;;;14.00;50.20;;;;;;4968174;28;45490;-63
2022/12/10 04:30:20;;;;;;;2.88;2.50;;;13.90;50.10;;;;;;4944889;28;44965;-63
2022/12/10 04:32:46;;;;;;;3.08;2.33;;;13.90;50.10;;;;;;4967404;28;45495;-62
2022/12/10 04:35:11;;;;;;;2.78;2.10;;;13.90;50.10;;;;;;4952578;28;45329;-63
2022/12/10 04:37:37;;;;;;;3.25;2.20;;;13.90;50.10;;;;;;4952981;28;44984;-60
2022/12/10 04:40:03;;;;;;;2.83;1.98;;;13.90;50.20;;;;;;4967281;28;45044;-59
2022/12/10 04:42:29;;;;;;;2.22;1.98;;;13.90;50.20;;;;;;4952978;28;46274;-61
2022/12/10 04:44:54;;;;;;;3.67;2.30;;;13.90;50.20;;;;;;4968940;28;44735;-62
2022/12/10 04:47:20;;;;;;;3.20;2.17;;;13.90;50.20;;;;;;4965502;28;45094;-62
2022/12/10 04:49:46;;;;;;;2.35;1.90;;;13.90;50.20;;;;;;4968383;28;44704;-61
2022/12/10 04:52:13;;;;;;;3.22;2.10;;;13.90;50.20;;;;;;4964271;28;45379;-62
2022/12/10 04:54:39;;;;;;;3.25;2.40;;;13.90;50.20;;;;;;4932809;28;44668;-63
2022/12/10 04:57:06;;;;;;;2.85;2.20;;;13.90;50.30;;;;;;4967853;28;44897;-64
2022/12/10 04:59:31;;;;;;;2.40;1.92;;;13.90;50.20;;;;;;4951328;28;45576;-61
2022/12/10 05:01:57;;;;;;;2.40;1.95;;;13.90;50.20;;;;;;4934482;28;45183;-63
2022/12/10 05:04:22;;;;;;;2.70;2.10;;;13.80;50.20;;;;;;4942994;28;45018;-60
2022/12/10 05:06:48;;;;;;;3.08;2.10;;;13.80;50.10;;;;;;4947612;28;45742;-62
2022/12/10 05:09:14;;;;;;;2.40;1.88;;;13.80;50.10;;;;;;4930712;28;45313;-63
2022/12/10 05:11:40;;;;;;;2.50;2.05;;;13.80;50.10;;;;;;4947577;28;45817;-62
2022/12/10 05:14:05;;;;;;;3.17;2.20;;;13.80;50.20;;;;;;4948665;28;44967;-63
2022/12/10 05:16:31;;;;;;;2.85;2.10;;;13.80;50.20;;;;;;4929363;28;45156;-63
2022/12/10 05:18:57;;;;;;;2.95;2.03;;;13.80;50.20;;;;;;4950541;28;44846;-62
2022/12/10 05:21:23;;;;;;;3.22;2.08;;;13.80;50.20;;;;;;4928978;28;45190;-61
2022/12/10 05:23:50;;;;;;;2.65;2.10;;;13.80;50.20;;;;;;4934973;28;45073;-62
2022/12/10 05:26:23;;;;;;;2.58;1.90;;;13.80;50.20;;;;;;4928114;28;45269;-62
2022/12/10 05:28:51;;;;;;;2.43;1.90;;;13.80;50.20;;;;;;4929914;28;45377;-61
2022/12/10 05:31:21;;;;;;;2.50;2.00;;;13.80;50.20;;;;;;4942496;28;46175;-62
2022/12/10 05:33:47;;;;;;;2.45;2.00;;;13.80;50.20;;;;;;4927102;28;45065;-61
2022/12/10 05:36:14;;;;;;;2.72;2.13;;;13.80;50.20;;;;;;4927334;28;44763;-62
2022/12/10 05:38:40;;;;;;;3.17;2.17;;;13.80;50.20;;;;;;4950062;28;45019;-63
2022/12/10 05:41:07;;;;;;;2.58;2.10;;;13.70;50.20;;;;;;4929332;28;45114;-62
2022/12/10 05:43:33;;;;;;;3.42;2.35;;;13.80;50.20;;;;;;4926677;28;45016;-63
2022/12/10 05:46:02;;;;;;;2.17;1.98;;;13.70;50.10;;;;;;4949216;28;45150;-62
2022/12/10 05:48:28;;;;;;;2.25;1.88;;;13.70;50.20;;;;;;4930126;28;45313;-63
2022/12/10 05:50:54;;;;;;;2.45;2.10;;;13.70;50.20;;;;;;4925215;28;45304;-62
2022/12/10 05:53:19;;;;;;;3.15;2.30;;;13.70;50.20;;;;;;4947845;28;45540;-61
2022/12/10 05:55:45;;;;;;;2.70;1.95;;;13.70;50.20;;;;;;4928579;28;44976;-62
2022/12/10 05:58:10;;;;;;;3.33;1.98;;;13.70;50.20;;;;;;4946431;28;45053;-61
2022/12/10 06:00:38;;;;;;;2.65;2.00;;;13.70;50.20;;;;;;4931683;28;45313;-62
2022/12/10 06:03:04;;;;;;;3.03;1.90;;;13.70;50.20;;;;;;4930387;28;45153;-62
2022/12/10 06:05:29;;;;;;;2.30;2.00;;;13.70;50.20;;;;;;4968141;28;44753;-62
2022/12/10 06:07:55;;;;;;;3.00;2.20;;;13.70;50.20;;;;;;4943546;28;45326;-62
2022/12/10 06:10:20;;;;;;;3.28;2.35;;;13.70;50.20;;;;;;4962309;28;46091;-63
2022/12/10 06:12:46;;;;;;;3.45;2.40;;;13.70;50.20;;;;;;4948007;28;44977;-62
2022/12/10 06:15:11;;;;;;;2.72;2.08;;;13.70;50.20;;;;;;4964691;28;44977;-62
2022/12/10 06:17:37;;;;;;;2.38;1.67;;;13.70;50.30;;;;;;4966997;28;45055;-62
2022/12/10 06:20:03;;;;;;;3.28;2.13;;;13.60;50.30;;;;;;4963700;28;46313;-63
2022/12/10 06:22:28;;;;;;;3.38;2.33;;;13.70;50.30;;;;;;4948841;28;45022;-61
2022/12/10 06:24:54;;;;;;;3.00;2.10;;;13.60;50.20;;;;;;4959673;28;45300;-62
2022/12/10 06:27:20;;;;;;;2.28;1.85;;;13.60;50.20;;;;;;4964327;28;44985;-61
2022/12/10 06:29:45;;;;;;;2.63;2.03;;;13.60;50.30;;;;;;4966796;28;46124;-62
2022/12/10 06:32:11;;;;;;;2.35;1.90;;;13.60;50.30;;;;;;4965439;28;44833;-62
2022/12/10 06:34:37;;;;;;;2.17;1.88;;;13.60;50.30;;;;;;4951599;28;45043;-61
2022/12/10 06:37:02;;;;;;;2.80;2.22;;;13.60;50.30;;;;;;4970303;28;46004;-62
2022/12/10 06:39:28;;;;;;;2.47;2.00;;;13.60;50.30;;;;;;4957543;28;45393;-62
2022/12/10 06:41:53;;;;;;;3.13;2.30;;;13.60;50.30;;;;;;4964943;28;44974;-60
2022/12/10 06:44:19;;;;;;;2.53;1.90;;;13.60;50.20;;;;;;4967051;28;45646;-61
2022/12/10 06:46:44;;;;;;;2.85;2.30;;;13.60;50.20;;;;;;4970578;28;45009;-61
2022/12/10 06:49:10;;;;;;;2.40;1.92;;;13.60;50.30;;;;;;4972344;28;46158;-61
2022/12/10 06:51:35;;;;;;;2.45;2.15;;;13.60;50.30;;;;;;4951234;28;45974;-62
2022/12/10 06:54:01;;;;;;;2.58;2.15;;;13.60;50.30;;;;;;4954899;28;44770;-62
2022/12/10 06:56:26;;;;;;;2.90;2.33;;;13.60;50.30;;;;;;4949058;28;45244;-64
2022/12/10 06:58:52;;;;;;;2.90;2.20;;;13.60;50.30;;;;;;4965756;28;46048;-60
2022/12/10 07:01:22;;;;;;;2.60;2.00;;;13.50;50.20;;;;;;4966048;28;46549;-61
2022/12/10 07:03:52;;;;;;;2.75;2.10;;;13.60;50.30;;;;;;4935043;28;45166;-62
2022/12/10 07:06:17;;;;;;;2.50;1.98;;;13.50;50.20;;;;;;4951321;28;45017;-63
2022/12/10 07:08:43;;;;;;;3.50;2.22;;;13.60;50.30;;;;;;4956685;28;45225;-62
2022/12/10 07:11:10;;;;;;;2.53;2.00;;;13.50;50.20;;;;;;4964937;28;44914;-61
2022/12/10 07:13:36;;;;;;;3.33;2.35;;;13.50;50.30;;;;;;4955894;28;44862;-61
2022/12/10 07:16:02;;;;;;;3.20;2.10;;;13.50;50.30;;;;;;4951293;28;45697;-61
2022/12/10 07:18:27;;;;;;;2.83;2.17;;;13.50;50.30;;;;;;4964618;28;46129;-62
2022/12/10 07:20:53;;;;;;;2.85;2.25;;;13.50;50.30;;;;;;4945159;28;44983;-61
2022/12/10 07:23:19;;;;;;;2.30;2.00;;;13.50;50.30;;;;;;4968526;28;45029;-62
2022/12/10 07:25:45;;;;;;;2.60;2.00;;;13.50;50.30;;;;;;4949501;28;45068;-63
2022/12/10 07:28:10;;;;;;;3.78;2.10;;;13.40;50.30;;;;;;4935875;28;46906;-62
2022/12/10 07:30:36;;;;;;;2.28;1.80;;;13.50;50.30;;;;;;4973463;28;45229;-62
2022/12/10 07:33:01;;;;;;;2.45;2.22;;;13.40;50.90;;;;;;4968562;28;45191;-63
2022/12/10 07:35:27;;;;;;;2.78;2.10;;;13.40;50.30;;;;;;4971997;28;44965;-62
2022/12/10 07:37:52;;;;;;;2.33;1.98;;;13.40;50.30;;;;;;4958419;28;45165;-64
2022/12/10 07:40:18;;;;;;;2.30;1.85;;;13.40;50.30;;;;;;4963750;28;45133;-63
2022/12/10 07:42:43;;;;;;;3.17;2.30;;;13.50;50.30;;;;;;4966553;28;44985;-62
2022/12/10 07:45:09;;;;;;;3.50;2.17;;;13.50;50.30;;;;;;4968524;28;45120;-61
2022/12/10 07:47:36;;;;;;;2.42;2.05;;;13.50;50.30;;;;;;4965491;28;45387;-63
2022/12/10 07:50:02;;;;;;;2.88;2.33;;;13.40;50.30;;;;;;4956358;28;44880;-63
2022/12/10 07:52:28;;;;;;;2.92;2.20;;;13.40;50.30;;;;;;4969949;28;45061;-64
2022/12/10 07:54:54;;;;;;;2.72;2.28;;;13.40;50.30;;;;;;4968453;28;45021;-63
2022/12/10 07:57:19;;;;;;;3.85;1.98;;;13.40;50.30;;;;;;4960003;28;45112;-61
2022/12/10 07:59:45;;;;;;;2.75;2.30;;;13.40;50.30;;;;;;4967552;28;44674;-63
2022/12/10 08:02:10;;;;;;;3.10;2.17;;;13.40;50.30;;;;;;4967035;28;44920;-63
2022/12/10 08:04:37;;;;;;;3.67;2.40;;;13.40;50.30;;;;;;4964058;28;44771;-62
2022/12/10 08:07:03;;;;;;;2.67;2.30;;;13.50;50.20;;;;;;4950142;28;46266;-64
2022/12/10 08:09:28;;;;;;;2.45;2.05;;;13.60;50.10;;;;;;4965806;28;46004;-63
2022/12/10 08:11:54;;;;;;;2.95;1.92;;;13.70;49.90;;;;;;4962688;28;44857;-62
2022/12/10 08:14:19;;;;;;;2.58;2.03;;;13.80;49.70;;;;;;4963508;28;44791;-64
2022/12/10 08:16:45;;;;;;;2.60;2.03;;;14.00;49.40;;;;;;4967813;28;46063;-64
2022/12/10 08:19:10;;;;;;;2.20;1.77;;;14.20;49.20;;;;;;4966685;28;45164;-63
2022/12/10 08:21:38;;;;;;;2.65;2.10;;;14.30;49.00;;;;;;4940515;28;45056;-61
2022/12/10 08:24:03;;;;;;;2.40;1.92;;;14.40;48.80;;;;;;4961689;28;45264;-62
2022/12/10 08:26:31;;;;;;;2.28;1.80;;;14.50;48.70;;;;;;4960124;28;45248;-62
2022/12/10 08:28:57;;;;;;;2.17;1.80;;;14.60;48.50;;;;;;4953688;28;45378;-62
2022/12/10 08:31:23;;;;;;;2.10;1.48;;;14.70;48.40;;;;;;4965907;28;45113;-61
2022/12/10 08:33:49;;;;;;;2.30;1.80;;;14.80;48.40;;;;;;4937241;28;45831;-62
2022/12/10 08:36:15;;;;;;;2.22;1.75;;;14.90;48.30;;;;;;4948581;28;45156;-62
2022/12/10 08:38:41;;;;;;;2.00;1.80;;;14.90;48.20;;;;;;4965167;28;44954;-61
2022/12/10 08:41:08;;;;;;;2.60;1.95;;;14.90;48.30;;;;;;4961992;28;45742;-61
2022/12/10 08:43:34;;;;;;;3.58;2.22;;;14.90;48.40;;;;;;4964285;28;45400;-63
2022/12/10 08:46:00;;;;;;;2.65;2.08;;;15.00;48.30;;;;;;4966250;28;45872;-63
2022/12/10 08:48:25;;;;;;;3.05;1.50;;;15.10;48.10;;;;;;4935122;28;44924;-63
2022/12/10 08:50:51;;;;;;;2.00;1.73;;;15.20;48.00;;;;;;4965615;28;44737;-62
2022/12/10 08:53:16;;;;;;;2.35;1.90;;;15.30;47.80;;;;;;4965719;28;45588;-64
2022/12/10 08:55:42;;;;;;;2.08;1.70;;;15.50;47.70;;;;;;4947486;28;46262;-61
2022/12/10 08:58:08;;;;;;;2.00;1.80;;;15.60;47.50;;;;;;4947192;28;44916;-61
2022/12/10 09:00:33;;;;;;;2.35;1.80;;;15.70;47.30;;;;;;4931229;28;44826;-61
2022/12/10 09:02:59;;;;;;;2.25;1.75;;;15.80;47.30;;;;;;4944167;28;44975;-61
2022/12/10 09:05:24;;;;;;;1.70;1.42;;;15.90;47.20;;;;;;4968169;28;45696;-63
2022/12/10 09:07:50;;;;;;;2.05;1.60;;;16.00;47.10;;;;;;4964472;28;46154;-64
2022/12/10 09:10:16;;;;;;;2.38;2.10;;;16.10;47.00;;;;;;4963299;28;44841;-63
2022/12/10 09:12:41;;;;;;;3.03;1.80;;;16.10;47.00;;;;;;4964677;28;46081;-62
2022/12/10 09:15:08;;;;;;;2.33;1.90;;;16.20;46.90;;;;;;4965814;28;45290;-61
2022/12/10 09:17:35;;;;;;;2.13;1.50;;;16.20;46.90;;;;;;4949411;28;44880;-61
2022/12/10 09:20:00;;;;;;;2.00;1.80;;;16.20;46.90;;;;;;4949365;28;45097;-61
2022/12/10 09:22:26;;;;;;;2.38;1.95;;;16.20;46.80;;;;;;4946036;28;45572;-61
2022/12/10 09:24:51;;;;;;;2.20;1.77;;;16.20;46.90;;;;;;4966381;28;46282;-61
2022/12/10 09:27:17;;;;;;;1.88;1.65;;;16.20;46.90;;;;;;4964244;28;44792;-62
2022/12/10 09:29:42;;;;;;;2.20;1.75;;;16.30;46.80;;;;;;4970203;28;45003;-61
2022/12/10 09:32:08;;;;;;;2.42;2.00;;;16.50;46.70;;;;;;4967678;28;44632;-61
2022/12/10 09:34:33;;;;;;;2.45;1.90;;;16.60;46.50;;;;;;4963695;28;45336;-63
2022/12/10 09:36:59;;;;;;;1.60;1.42;;;16.70;46.40;;;;;;4966784;28;45324;-62
2022/12/10 09:39:24;;;;;;;2.40;1.67;;;16.80;46.20;;;;;;4968103;28;45181;-63
2022/12/10 09:42:02;;;;;;;1.88;1.67;;;16.90;46.00;;;;;;4944817;28;46290;-61
2022/12/10 09:44:49;;;;;;;2.20;1.77;;;17.00;45.80;;;;;;4942475;28;46289;-63
2022/12/10 09:47:15;;;;;;;2.38;1.90;;;17.10;45.80;;;;;;4964205;28;44958;-63
2022/12/10 09:49:46;;;;;;;2.05;1.52;;;17.20;45.80;;;;;;4940820;28;44830;-61
2022/12/10 09:52:14;;;;;;;1.83;1.67;;;17.20;45.60;;;;;;4962679;28;45072;-64
2022/12/10 09:54:45;;;;;;;2.55;1.95;;;17.30;45.60;;;;;;4935188;28;46086;-62
2022/12/10 09:57:19;;;;;;;2.13;1.67;;;17.40;45.40;;;;;;4938919;28;45050;-62
2022/12/10 09:59:47;;;;;;;1.95;1.42;;;17.50;45.40;;;;;;4943263;28;45549;-63
2022/12/10 10:02:29;;;;;;;1.98;1.65;;;17.50;45.50;;;;;;4947889;28;45889;-63
2022/12/10 10:05:07;;;;;;;2.05;1.75;;;17.40;45.40;;;;;;4947538;28;45101;-61
2022/12/10 10:07:34;;;;;;;1.95;1.55;;;17.40;45.40;;;;;;4961617;28;45263;-63
2022/12/10 10:10:02;;;;;;;1.90;1.60;;;17.50;45.60;;;;;;4930711;28;45061;-62
2022/12/10 10:12:28;;;;;;;1.52;1.42;;;17.60;45.50;;;;;;4946664;28;45290;-62
2022/12/10 10:14:54;;;;;;;2.60;1.70;;;17.70;45.40;;;;;;4936229;28;46339;-63
2022/12/10 10:17:29;;;;;;;2.45;2.00;;;17.80;45.20;;;;;;4951311;28;44763;-62
2022/12/10 10:19:54;;;;;;;2.00;1.73;;;17.90;45.00;;;;;;4943102;28;45178;-62
2022/12/10 10:22:20;;;;;;;1.90;1.70;;;18.10;45.00;;;;;;4967903;28;45110;-61
2022/12/10 10:24:46;;;;;;;1.70;1.60;;;18.20;44.80;;;;;;4969135;28;46309;-62
2022/12/10 10:27:16;;;;;;;2.03;1.63;;;18.30;44.80;;;;;;4951867;28;45335;-63
2022/12/10 10:29:47;;;;;;;2.83;2.03;;;18.30;44.50;;;;;;4918632;28;45106;-63
2022/12/10 10:32:22;;;;;;;1.40;1.27;;;18.40;44.40;;;;;;4955184;28;45523;-61
2022/12/10 10:34:56;;;;;;;2.17;1.77;;;18.50;44.50;;;;;;4969188;28;45061;-62
2022/12/10 10:37:25;;;;;;;2.08;1.70;;;18.50;44.20;;;;;;4954943;28;45058;-61
2022/12/10 10:39:50;;;;;;;2.08;1.75;;;18.60;44.40;;;;;;4950840;28;45125;-62
2022/12/10 10:42:33;;;;;;;2.05;1.52;;;18.60;44.30;;;;;;4952917;28;45022;-63
2022/12/10 10:44:59;;;;;;;1.70;1.40;;;18.60;44.30;;;;;;4933957;28;45244;-62
2022/12/10 10:47:30;;;;;;;2.95;1.80;;;18.50;44.50;;;;;;4971461;28;44666;-63
2022/12/10 10:49:55;;;;;;;1.75;1.65;;;18.50;44.60;;;;;;4956413;28;45791;-63
2022/12/10 10:52:21;;;;;;;2.78;1.70;;;18.60;44.60;;;;;;4951198;28;44973;-62
2022/12/10 10:54:47;;;;;;;2.40;1.60;;;18.70;44.50;;;;;;4968883;28;45432;-64
2022/12/10 10:57:36;;;;;;;1.77;1.60;;;18.80;44.30;;;;;;4933661;28;45142;-64
2022/12/10 11:00:25;;;;;;;2.08;1.52;;;18.90;44.10;;;;;;4944018;28;44933;-62
2022/12/10 11:02:50;;;;;;;2.15;1.70;;;19.00;43.70;;;;;;4969522;28;45980;-61
2022/12/10 11:05:27;;;;;;;2.05;1.80;;;19.10;43.90;;;;;;4940192;28;45832;-60
2022/12/10 11:08:03;;;;;;;2.15;1.70;;;19.30;43.70;;;;;;4933779;28;45164;-63
2022/12/10 11:10:29;;;;;;;1.92;1.63;;;19.30;43.50;;;;;;4938549;28;45217;-65
2022/12/10 11:13:04;;;;;;;1.98;1.77;;;19.40;43.70;;;;;;4951802;28;45541;-62
2022/12/10 11:15:39;;;;;;;2.03;1.50;;;19.50;43.50;;;;;;4953486;28;46864;-61
2022/12/10 11:18:39;;;;;;;2.35;1.83;;;19.50;43.30;;;;;;4972252;28;45188;-61
2022/12/10 11:21:16;;;;;;;1.73;1.38;;;19.60;43.00;;;;;;4924055;28;45083;-63
2022/12/10 11:23:52;;;;;;;1.70;1.52;;;19.60;43.20;;;;;;4937384;28;44756;-63
2022/12/10 11:26:39;;;;;;;1.60;1.50;;;19.60;43.10;;;;;;4936690;28;45742;-62
2022/12/10 11:29:19;;;;;;;2.30;1.92;;;19.50;43.40;;;;;;4958202;28;44894;-63
2022/12/10 11:31:50;;;;;;;1.92;1.70;;;19.50;43.40;;;;;;4954952;28;45002;-62
2022/12/10 11:34:35;;;;;;;1.60;1.50;;;19.50;43.50;;;;;;4970665;28;44911;-62
2022/12/10 11:37:06;;;;;;;2.03;1.67;;;19.60;43.50;;;;;;4970275;28;46183;-61
2022/12/10 11:40:05;;;;;;;2.63;1.98;;;19.70;43.40;;;;;;4956571;28;44705;-62
2022/12/10 11:42:58;;;;;;;1.90;1.70;;;19.80;43.00;;;;;;4963861;28;45164;-61
2022/12/10 11:45:24;;;;;;;1.52;1.42;;;19.90;42.70;;;;;;4967127;28;44823;-62
2022/12/10 11:48:20;;;;;;;1.80;1.67;;;19.90;43.00;;;;;;4968791;28;45094;-61
2022/12/10 11:50:46;;;;;;;1.48;1.35;;;20.00;42.60;;;;;;4968522;28;46210;-62
2022/12/10 11:53:51;;;;;;;2.00;1.67;;;20.10;42.80;;;;;;4950095;28;44875;-61
2022/12/10 11:56:37;;;;;;;1.90;1.67;;;20.20;42.30;;;;;;4959812;28;44921;-62
2022/12/10 11:59:25;;;;;;;2.05;1.70;;;20.20;42.20;;;;;;4957521;28;45096;-63
2022/12/10 12:02:29;;;;;;;1.70;1.50;;;20.30;42.10;;;;;;4964294;28;45021;-61
2022/12/10 12:05:26;;;;;;;1.83;1.60;;;20.30;42.20;;;;;;4968142;28;44925;-62
2022/12/10 12:08:08;;;;;;;1.83;1.58;;;20.30;42.60;;;;;;4940174;28;45054;-61
2022/12/10 12:10:40;;;;;;;2.03;1.80;;;20.20;42.70;;;;;;4966758;28;45069;-63
2022/12/10 12:13:17;;;;;;;2.10;1.60;;;20.20;42.60;;;;;;4966548;28;44871;-61
2022/12/10 12:15:47;;;;;;;2.38;1.50;;;20.20;42.60;;;;;;4937026;28;45103;-62
2022/12/10 12:18:38;;;;;;;1.55;1.45;;;20.20;42.60;;;;;;4939439;28;44643;-61
2022/12/10 12:21:11;;;;;;;1.35;1.25;;;20.30;42.30;;;;;;4941388;28;47389;-61
2022/12/10 12:23:58;;;;;;;1.73;1.60;;;20.40;42.30;;;;;;4953292;28;44978;-61
2022/12/10 12:26:45;;;;;;;1.65;1.38;;;20.50;42.00;;;;;;4948233;28;44814;-62
2022/12/10 12:29:26;;;;;;;2.00;1.55;;;20.60;42.10;;;;;;4928995;28;45887;-62
2022/12/10 12:31:57;;;;;;;1.85;1.67;;;20.70;42.10;;;;;;4967271;28;46519;-61
2022/12/10 12:34:31;;;;;;;2.17;1.48;;;20.70;42.10;;;;;;4944553;28;44868;-62
2022/12/10 12:36:57;;;;;;;1.58;1.48;;;20.80;41.90;;;;;;4936089;28;45085;-63
2022/12/10 12:39:26;;;;;;;1.88;1.50;;;20.90;42.00;;;;;;4933830;28;45240;-61
2022/12/10 12:42:02;;;;;;;1.70;1.48;;;20.90;41.80;;;;;;4966344;28;45870;-62
2022/12/10 12:44:45;;;;;;;2.10;1.63;;;21.00;41.70;;;;;;4923669;28;44996;-61
2022/12/10 12:47:18;;;;;;;1.90;1.48;;;21.00;41.70;;;;;;4950519;28;45285;-62
2022/12/10 12:49:44;;;;;;;1.38;1.25;;;21.00;41.80;;;;;;4969286;28;45494;-63
2022/12/10 12:52:47;;;;;;;1.60;1.50;;;20.90;41.80;;;;;;4952470;28;45151;-63
2022/12/10 12:55:36;;;;;;;1.67;1.40;;;20.80;41.60;;;;;;4949041;28;44922;-63
2022/12/10 12:58:25;;;;;;;1.95;1.65;;;20.80;41.70;;;;;;4950152;28;45031;-63
2022/12/10 13:00:53;;;;;;;1.65;1.45;;;20.90;41.80;;;;;;4939536;28;44818;-61
2022/12/10 13:03:40;;;;;;;2.00;1.67;;;20.90;41.90;;;;;;4952254;28;45012;-62
2022/12/10 13:06:16;;;;;;;2.17;1.58;;;21.00;41.30;;;;;;4952132;28;44987;-63
2022/12/10 13:08:47;;;;;;;2.72;1.80;;;21.10;41.50;;;;;;4955038;28;44854;-62
2022/12/10 13:11:17;;;;;;;2.17;1.40;;;21.20;41.50;;;;;;4969880;28;44701;-62
2022/12/10 13:14:07;;;;;;;2.83;1.73;;;21.20;41.60;;;;;;4950201;28;46178;-63
2022/12/10 13:16:45;;;;;;;1.95;1.63;;;21.30;41.00;;;;;;4969181;28;44995;-62
2022/12/10 13:19:19;;;;;;;1.70;1.60;;;21.40;41.30;;;;;;4967661;28;44967;-62
2022/12/10 13:21:51;;;;;;;1.40;1.30;;;21.40;41.00;;;;;;4963990;28;44991;-63
2022/12/10 13:24:21;;;;;;;1.65;1.52;;;21.50;41.10;;;;;;4970357;28;44979;-62
2022/12/10 13:27:22;;;;;;;1.90;1.58;;;21.50;41.20;;;;;;4950980;28;45111;-62
2022/12/10 13:30:11;;;;;;;1.77;1.60;;;21.60;40.80;;;;;;4957932;28;44862;-61
2022/12/10 13:32:37;;;;;;;1.40;1.30;;;21.50;40.80;;;;;;4969021;28;44801;-61
2022/12/10 13:35:08;;;;;;;2.50;1.80;;;21.50;41.20;;;;;;4954060;28;45840;-63
2022/12/10 13:37:55;;;;;;;1.90;1.70;;;21.40;41.10;;;;;;4965800;28;45321;-62
2022/12/10 13:46:30;;;;;;;1.85;1.70;;;20.90;41.90;;;;;;4967762;28;45972;-62
2022/12/10 13:49:00;;;;;;;1.80;1.55;;;20.70;41.90;;;;;;4963475;28;44976;-61
2022/12/10 13:51:39;;;;;;;1.63;1.30;;;20.60;42.40;;;;;;4950427;28;44898;-62
2022/12/10 13:54:27;;;;;;;1.48;1.38;;;20.50;42.40;;;;;;4965589;28;45810;-61
2022/12/10 13:57:31;;;;;;;1.98;1.45;;;20.50;42.40;;;;;;4916337;28;46321;-63
2022/12/10 13:59:59;;;;;;;;;;;20.40;42.40;;;;;;4950148;28;45195;-63
2022/12/10 14:02:33;;;;;;;1.95;1.58;;;20.20;42.50;;;;;;4944814;28;45140;-61
2022/12/10 14:05:19;;;;;;;1.90;1.70;;;20.10;42.90;;;;;;4944904;28;45315;-63
2022/12/10 14:07:46;;;;;;;1.52;1.42;;;20.00;42.80;;;;;;4933425;28;45549;-62
2022/12/10 14:10:14;;;;;;;1.88;1.65;;;20.00;43.00;;;;;;4935903;28;45218;-61
2022/12/10 14:12:40;;;;;;;1.67;1.42;;;19.90;43.10;;;;;;4912271;28;44963;-64
2022/12/10 14:15:22;;;;;;;2.20;1.88;;;19.80;43.20;;;;;;4930992;28;44734;-62
2022/12/10 14:17:49;;;;;;;2.05;1.73;;;19.80;43.30;;;;;;4928081;28;46475;-61
2022/12/10 14:20:19;;;;;;;2.15;1.77;;;19.70;43.50;;;;;;4914901;28;44896;-61
2022/12/10 14:22:46;;;;;;;2.38;1.90;;;19.60;43.60;;;;;;4881367;28;45113;-62
2022/12/10 14:25:14;;;;;;;2.67;1.70;;;19.50;43.60;;;;;;4947170;28;47101;-62
2022/12/10 14:27:39;;;;;;;1.70;1.60;;;19.40;43.70;;;;;;4946295;28;46080;-62
2022/12/10 14:30:19;;;;;;;2.28;1.85;;;19.40;43.80;;;;;;4927679;28;45806;-63
2022/12/10 14:32:45;;;;;;;1.92;1.73;;;19.30;43.80;;;;;;4907778;28;45045;-63
2022/12/10 14:35:21;;;;;;;1.90;1.60;;;19.20;44.00;;;;;;4924020;28;45407;-62
2022/12/10 14:37:47;;;;;;;2.42;1.98;;;19.20;44.00;;;;;;4939611;28;45939;-61
2022/12/10 14:40:28;;;;;;;2.60;2.30;;;19.10;44.20;;;;;;4908607;28;44926;-61
2022/12/10 14:43:05;;;;;;;2.40;2.00;;;19.00;44.20;;;;;;4931346;28;44815;-61
2022/12/10 14:45:52;;;;;;;3.58;1.80;;;19.00;44.20;;;;;;4916611;28;45415;-63
2022/12/10 14:48:18;;;;;;;1.83;1.70;;;19.00;44.30;;;;;;4917436;28;45156;-61
2022/12/10 14:50:44;;;;;;;2.25;1.85;;;18.90;44.40;;;;;;4933714;28;45273;-62
2022/12/10 14:53:15;;;;;;;2.30;1.92;;;18.90;44.40;;;;;;4946431;28;44841;-63
2022/12/10 14:55:41;;;;;;;2.50;2.13;;;18.90;44.40;;;;;;4952053;28;44831;-64
2022/12/10 14:58:09;;;;;;;1.98;1.67;;;18.90;44.50;;;;;;4918663;28;44992;-63
2022/12/10 15:00:35;;;;;;;2.97;2.15;;;18.80;44.50;;;;;;4937722;28;44980;-63
2022/12/10 15:03:02;;;;;;;2.38;1.80;;;18.80;44.50;;;;;;4936708;28;45047;-61
2022/12/10 15:05:31;;;;;;;3.10;2.13;;;18.80;44.50;;;;;;4953795;28;44835;-63
2022/12/10 15:08:00;;;;;;;2.55;1.88;;;18.70;44.50;;;;;;4938246;28;47205;-63
2022/12/10 15:10:43;;;;;;;2.50;1.90;;;18.70;44.60;;;;;;4969062;28;45118;-62
2022/12/10 15:13:23;;;;;;;1.85;1.65;;;18.60;44.60;;;;;;4950823;28;45565;-63
2022/12/10 15:15:49;;;;;;;2.03;1.67;;;18.60;44.70;;;;;;4939491;28;44660;-61
2022/12/10 15:18:16;;;;;;;2.15;1.85;;;18.60;44.70;;;;;;4948973;28;45172;-61
2022/12/10 15:20:52;;;;;;;2.42;2.20;;;18.50;44.70;;;;;;4955156;28;44946;-62
2022/12/10 15:23:30;;;;;;;3.67;2.15;;;18.50;44.80;;;;;;4927639;28;45643;-61
2022/12/10 15:26:14;;;;;;;2.33;1.92;;;18.50;44.90;;;;;;4978392;28;45567;-62
2022/12/10 15:28:40;;;;;;;1.80;1.60;;;18.40;45.00;;;;;;4971378;28;44897;-61
2022/12/10 15:31:24;;;;;;;2.70;2.13;;;18.40;45.00;;;;;;4935985;28;45177;-61
2022/12/10 15:33:57;;;;;;;2.05;1.83;;;18.30;45.00;;;;;;4970359;28;44971;-63
2022/12/10 15:36:34;;;;;;;2.47;1.77;;;18.30;45.10;;;;;;4936637;28;45022;-63
2022/12/10 15:39:46;;;;;;;2.40;1.80;;;18.20;45.20;;;;;;4968672;28;45435;-63
2022/12/10 15:42:30;;;;;;;2.13;1.70;;;18.20;45.40;;;;;;4959716;28;45175;-63
2022/12/10 15:45:00;;;;;;;2.67;2.30;;;18.10;45.30;;;;;;4938847;28;45285;-63
2022/12/10 15:47:26;;;;;;;2.47;1.92;;;18.10;45.40;;;;;;4942866;28;45025;-62
2022/12/10 15:49:53;;;;;;;2.22;2.03;;;18.00;45.40;;;;;;4950686;28;45286;-62
2022/12/10 15:52:26;;;;;;;2.42;2.00;;;18.00;45.50;;;;;;4965864;28;45363;-61
2022/12/10 15:54:53;;;;;;;2.42;1.92;;;17.90;45.60;;;;;;4949888;28;44888;-62
2022/12/10 15:57:25;;;;;;;2.38;2.08;;;17.80;45.70;;;;;;4938545;28;45041;-61
2022/12/10 15:59:55;;;;;;;2.10;1.80;;;17.80;45.80;;;;;;4970475;28;45836;-62
2022/12/10 16:02:35;;;;;;;2.33;2.05;;;17.70;45.80;;;;;;4948727;28;46043;-61
2022/12/10 16:05:02;;;;;;;2.13;1.88;;;17.70;45.90;;;;;;4968272;28;45051;-61
2022/12/10 16:07:28;;;;;;;2.33;2.00;;;17.70;46.00;;;;;;4951217;28;44937;-62
2022/12/10 16:09:53;;;;;;;2.70;2.10;;;17.60;46.00;;;;;;4958360;28;46176;-61
2022/12/10 16:12:19;;;;;;;2.15;1.77;;;17.60;46.00;;;;;;4967539;28;44939;-61
2022/12/10 16:14:50;;;;;;;2.53;1.90;;;17.50;46.00;;;;;;4957404;28;45100;-61
2022/12/10 16:17:16;;;;;;;2.67;1.95;;;17.50;46.10;;;;;;4933585;28;44733;-60
2022/12/10 16:19:43;;;;;;;2.58;1.80;;;17.50;46.20;;;;;;4952876;28;45406;-60
2022/12/10 16:22:08;;;;;;;2.80;2.00;;;17.40;46.20;;;;;;4945016;28;44712;-61
2022/12/10 16:24:34;;;;;;;2.30;2.00;;;17.40;46.30;;;;;;4966366;28;45109;-61
2022/12/10 16:26:59;;;;;;;2.42;2.20;;;17.30;46.30;;;;;;4952371;28;45215;-62
2022/12/10 16:29:25;;;;;;;2.35;1.85;;;17.30;46.30;;;;;;4952176;28;46163;-62
2022/12/10 16:31:51;;;;;;;2.33;2.00;;;17.30;46.40;;;;;;4963949;28;45774;-62
2022/12/10 16:34:16;;;;;;;1.95;1.75;;;17.20;46.40;;;;;;4965996;28;45110;-62
2022/12/10 16:36:42;;;;;;;1.92;1.58;;;17.20;46.40;;;;;;4965296;28;45170;-61
2022/12/10 16:39:09;;;;;;;2.88;2.00;;;17.10;46.40;;;;;;4967442;28;45465;-61
2022/12/10 16:41:34;;;;;;;1.95;1.70;;;17.10;46.50;;;;;;4953422;28;45124;-61
2022/12/10 16:44:00;;;;;;;2.38;2.17;;;17.00;46.60;;;;;;4965420;28;45979;-60
2022/12/10 16:46:25;;;;;;;2.40;2.00;;;17.10;46.60;;;;;;4948848;28;44927;-61
2022/12/10 16:48:51;;;;;;;2.20;2.00;;;17.00;46.60;;;;;;4969251;28;45082;-61
2022/12/10 16:51:22;;;;;;;1.90;1.77;;;17.00;46.60;;;;;;4967881;28;45228;-60
2022/12/10 16:53:48;;;;;;;2.40;2.00;;;17.00;46.70;;;;;;4970007;28;44678;-59
2022/12/10 16:56:14;;;;;;;2.53;1.98;;;16.90;46.70;;;;;;4955135;28;44928;-59
2022/12/10 16:58:40;;;;;;;2.38;1.90;;;16.90;46.70;;;;;;4971191;28;45252;-60
2022/12/10 17:01:14;;;;;;;2.50;1.88;;;16.90;46.80;;;;;;4947433;28;45192;-63
2022/12/10 17:03:39;;;;;;;2.80;2.17;;;16.80;46.80;;;;;;4933947;28;45007;-61
2022/12/10 17:06:05;;;;;;;1.90;1.70;;;16.80;46.90;;;;;;4962538;28;45882;-61
2022/12/10 17:08:31;;;;;;;1.92;1.73;;;16.70;46.90;;;;;;4948901;28;45964;-61
2022/12/10 17:13:42;;;;;;;2.53;1.83;;;16.70;46.90;;;;;;4966893;28;45118;-63
2022/12/10 17:16:13;;;;;;;3.22;2.40;;;16.70;47.00;;;;;;4924395;28;45205;-61
2022/12/10 17:18:39;;;;;;;1.60;1.50;;;16.60;47.00;;;;;;4935338;28;45716;-61
2022/12/10 17:21:04;;;;;;;2.85;2.10;;;16.60;47.00;;;;;;4962887;28;45834;-60
2022/12/10 17:23:30;;;;;;;2.20;1.85;;;16.60;47.00;;;;;;4968603;28;44790;-60